Flight Sim Network - SVSA Airport Info

    SVSA (San Antonio Del Tachira Airport)  Login to use Map Selector
   

  RUNWAY INFORMATION    |    Airport Elevation : 1312ft    |    LAT : 7.84082984924316  /  LON : -72.439697265625
Runway Number 17 / 35 Runway Width 131' Runway Length 6135'
Lighted Runway Yes Runway StatusOpen Runway Surface Asphalt
  CLOSE ALTERNATE AIRPORTS
ICAODistanceAirport NameLongest RWRW SurfaceMAP
SKCC7NMCamilo Daza International Airport7700FTAsphalt
SVPM14NMParamillo Airport3571FTAsphalt
SVLF26NMLa Fria Airport6669FTAsphalt
SVSO29NMMayor Buenaventura Vivas International Airport9990FTAsphalt
SKTB50NMTibu4921FTAsphalt
SVEB50NMEl Guayabo del Zulia Airport3281FTAsphalt
SVCG55NMEl Cubo3450FTAsphalt
SVFU60NMLa Fortuna Airport3278FTAsphalt
SKOC61NMAguas Claras Airport3937FTAsphalt
SKBG62NMPalonegro Airport7445FTAsphalt
  AIRPORT WEATHER
80°F | 27°C
Temperature
65%
Humidity
29" | 0mb
Pressure
Visibility
VFR
Flight Rules
CLR
Initial Clouds
FAIR
Conditions
Wind Info
3/4/24 1:03Z
Updated

SVSA 040103Z AUTO 33002KT NCD 27/20 Q1012
  AIRPORT FREQUENCIES
NameFrequency
GROUND121.900
TOWER118.500

Powered by Virtual Airlines Manager